createdAt,value
2018-12-14T00:00:11.794Z,6.437376
2018-12-14T00:00:24.253Z,6.437376
2018-12-14T00:00:36.640Z,6.437376
2018-12-14T00:00:49.024Z,6.437376
2018-12-14T00:01:01.388Z,8.04672
2018-12-14T00:01:13.733Z,8.04672
2018-12-14T00:01:26.069Z,8.04672
2018-12-14T00:01:38.403Z,8.04672
2018-12-14T00:01:50.756Z,8.04672
2018-12-14T00:02:03.340Z,8.04672
2018-12-14T00:02:15.740Z,0
2018-12-14T00:02:28.083Z,1.609344
2018-12-14T00:02:40.438Z,1.609344
2018-12-14T00:02:52.810Z,1.609344
2018-12-14T00:03:05.196Z,0
2018-12-14T00:03:17.687Z,0
2018-12-14T00:03:30.047Z,1.609344
2018-12-14T00:03:42.430Z,1.609344
2018-12-14T00:03:54.878Z,1.609344
2018-12-14T00:04:07.245Z,1.609344
2018-12-14T00:04:19.665Z,1.609344
2018-12-14T00:04:32.017Z,1.609344
2018-12-14T00:04:44.355Z,1.609344
2018-12-14T00:04:56.704Z,1.609344
2018-12-14T00:05:09.064Z,3.218688
2018-12-14T00:05:21.395Z,3.218688
2018-12-14T00:05:33.754Z,4.828032
2018-12-14T00:05:46.099Z,8.04672
2018-12-14T00:05:58.438Z,8.04672
2018-12-14T00:06:10.789Z,3.218688
2018-12-14T00:06:23.145Z,3.218688
2018-12-14T00:06:35.497Z,3.218688
2018-12-14T00:06:47.855Z,3.218688
2018-12-14T00:07:00.200Z,3.218688
2018-12-14T00:07:12.698Z,3.218688
2018-12-14T00:07:25.037Z,3.218688
2018-12-14T00:07:37.380Z,3.218688
2018-12-14T00:07:49.744Z,3.218688
2018-12-14T00:08:02.125Z,6.437376
2018-12-14T00:08:14.465Z,6.437376
2018-12-14T00:08:26.833Z,6.437376
2018-12-14T00:08:39.309Z,6.437376
2018-12-14T00:08:51.659Z,6.437376
2018-12-14T00:09:04.037Z,6.437376
2018-12-14T00:09:16.417Z,1.609344
2018-12-14T00:09:28.778Z,3.218688
2018-12-14T00:09:41.159Z,3.218688
2018-12-14T00:09:53.493Z,3.218688
2018-12-14T00:10:05.838Z,0
2018-12-14T00:10:18.213Z,1.609344
2018-12-14T00:10:30.564Z,1.609344
2018-12-14T00:10:42.902Z,1.609344
2018-12-14T00:10:55.242Z,1.609344
2018-12-14T00:11:08.683Z,1.609344
2018-12-14T00:11:21.023Z,1.609344
2018-12-14T00:11:33.436Z,1.609344
2018-12-14T00:11:52.228Z,1.609344
2018-12-14T00:12:04.567Z,1.609344
2018-12-14T00:12:16.934Z,1.609344
2018-12-14T00:12:29.270Z,3.218688
2018-12-14T00:12:41.635Z,3.218688
2018-12-14T00:12:53.998Z,3.218688
2018-12-14T00:13:06.356Z,0
2018-12-14T00:13:18.734Z,0
2018-12-14T00:13:31.123Z,0
2018-12-14T00:13:43.472Z,0
2018-12-14T00:13:55.802Z,0
2018-12-14T00:14:08.143Z,0
2018-12-14T00:14:20.508Z,0
2018-12-14T00:14:32.857Z,1.609344
2018-12-14T00:14:45.234Z,1.609344
2018-12-14T00:14:57.560Z,1.609344
2018-12-14T00:15:09.898Z,0
2018-12-14T00:15:22.244Z,0
2018-12-14T00:15:34.595Z,0
2018-12-14T00:15:46.929Z,0
2018-12-14T00:15:59.267Z,0
2018-12-14T00:16:11.616Z,0
2018-12-14T00:16:23.981Z,0
2018-12-14T00:16:36.396Z,0
2018-12-14T00:16:48.736Z,0
2018-12-14T00:17:01.075Z,3.218688
2018-12-14T00:17:13.417Z,6.437376
2018-12-14T00:17:25.998Z,6.437376
2018-12-14T00:17:38.343Z,6.437376
2018-12-14T00:17:50.678Z,6.437376
2018-12-14T00:18:03.022Z,6.437376
2018-12-14T00:18:15.382Z,6.437376
2018-12-14T00:18:28.096Z,6.437376
2018-12-14T00:18:40.432Z,6.437376
2018-12-14T00:18:52.791Z,6.437376
2018-12-14T00:19:05.123Z,9.656064
2018-12-14T00:19:17.516Z,9.656064
2018-12-14T00:19:29.844Z,9.656064
2018-12-14T00:19:42.197Z,9.656064
2018-12-14T00:19:54.610Z,9.656064
2018-12-14T00:20:06.945Z,3.218688
2018-12-14T00:20:19.295Z,3.218688
2018-12-14T00:20:31.654Z,3.218688
2018-12-14T00:20:43.992Z,3.218688
2018-12-14T00:20:56.404Z,3.218688
2018-12-14T00:21:08.746Z,3.218688
2018-12-14T00:21:21.079Z,3.218688
2018-12-14T00:21:33.428Z,4.828032
2018-12-14T00:21:45.787Z,4.828032
2018-12-14T00:21:58.220Z,4.828032
2018-12-14T00:22:10.596Z,3.218688
2018-12-14T00:22:22.952Z,3.218688
2018-12-14T00:22:35.321Z,3.218688
2018-12-14T00:22:47.673Z,6.437376
2018-12-14T00:23:00.032Z,6.437376
2018-12-14T00:23:12.409Z,1.609344
2018-12-14T00:23:24.780Z,3.218688
2018-12-14T00:23:37.115Z,3.218688
2018-12-14T00:23:49.466Z,3.218688
2018-12-14T00:24:01.824Z,3.218688
2018-12-14T00:24:14.168Z,3.218688
2018-12-14T00:24:26.519Z,3.218688
2018-12-14T00:24:38.878Z,3.218688
2018-12-14T00:24:51.233Z,6.437376
2018-12-14T00:25:03.602Z,6.437376
2018-12-14T00:25:15.935Z,3.218688
2018-12-14T00:25:28.295Z,3.218688
2018-12-14T00:25:40.668Z,3.218688
2018-12-14T00:25:53.118Z,3.218688
2018-12-14T00:26:05.453Z,1.609344
2018-12-14T00:26:17.805Z,1.609344
2018-12-14T00:26:30.300Z,1.609344
2018-12-14T00:26:42.674Z,1.609344
2018-12-14T00:26:55.078Z,1.609344
2018-12-14T00:27:07.421Z,0
2018-12-14T00:27:19.742Z,0
2018-12-14T00:27:32.093Z,3.218688
2018-12-14T00:27:44.429Z,3.218688
2018-12-14T00:27:56.994Z,3.218688
2018-12-14T00:28:09.447Z,1.609344
2018-12-14T00:28:21.784Z,1.609344
2018-12-14T00:28:34.299Z,1.609344
2018-12-14T00:28:46.636Z,1.609344
2018-12-14T00:28:58.973Z,4.828032
2018-12-14T00:29:11.315Z,1.609344
2018-12-14T00:29:23.729Z,1.609344
2018-12-14T00:29:36.057Z,1.609344
2018-12-14T00:29:49.575Z,3.218688
2018-12-14T00:30:02.056Z,3.218688
2018-12-14T00:30:14.389Z,1.609344
2018-12-14T00:30:26.735Z,3.218688
2018-12-14T00:30:39.237Z,3.218688
2018-12-14T00:30:51.574Z,4.828032
2018-12-14T00:31:03.904Z,4.828032
2018-12-14T00:31:16.383Z,1.609344
2018-12-14T00:31:28.720Z,3.218688
2018-12-14T00:31:41.200Z,3.218688
2018-12-14T00:31:53.706Z,3.218688
2018-12-14T00:32:06.124Z,3.218688
2018-12-14T00:32:18.465Z,3.218688
2018-12-14T00:32:31.003Z,3.218688
2018-12-14T00:32:43.357Z,3.218688
2018-12-14T00:32:55.877Z,6.437376
2018-12-14T00:33:08.318Z,6.437376
2018-12-14T00:33:20.655Z,6.437376
2018-12-14T00:33:32.991Z,6.437376
2018-12-14T00:33:45.319Z,6.437376
2018-12-14T00:33:57.659Z,6.437376
2018-12-14T00:34:09.998Z,3.218688
2018-12-14T00:34:22.354Z,4.828032
2018-12-14T00:34:34.688Z,8.04672
2018-12-14T00:34:47.030Z,9.656064
2018-12-14T00:34:59.368Z,9.656064
2018-12-14T00:35:11.779Z,3.218688
2018-12-14T00:35:24.207Z,3.218688
2018-12-14T00:35:36.552Z,3.218688
2018-12-14T00:35:48.891Z,3.218688
2018-12-14T00:36:01.297Z,3.218688
2018-12-14T00:36:13.644Z,0
2018-12-14T00:36:25.978Z,0
2018-12-14T00:36:38.349Z,1.609344
2018-12-14T00:36:50.698Z,1.609344
2018-12-14T00:37:03.032Z,1.609344
2018-12-14T00:37:15.354Z,1.609344
2018-12-14T00:37:27.698Z,3.218688
2018-12-14T00:37:40.041Z,3.218688
2018-12-14T00:37:52.407Z,3.218688
2018-12-14T00:38:05.011Z,1.609344
2018-12-14T00:38:17.363Z,1.609344
2018-12-14T00:38:29.709Z,1.609344
2018-12-14T00:38:42.083Z,1.609344
2018-12-14T00:38:54.456Z,1.609344
2018-12-14T00:39:06.797Z,6.437376
2018-12-14T00:39:19.171Z,6.437376
2018-12-14T00:39:31.520Z,6.437376
2018-12-14T00:39:43.964Z,6.437376
2018-12-14T00:39:56.366Z,6.437376
2018-12-14T00:40:08.695Z,3.218688
2018-12-14T00:40:21.283Z,3.218688
2018-12-14T00:40:33.707Z,3.218688
2018-12-14T00:40:46.052Z,3.218688
2018-12-14T00:40:58.515Z,6.437376
2018-12-14T00:41:11.036Z,3.218688
2018-12-14T00:41:23.382Z,3.218688
2018-12-14T00:41:35.710Z,3.218688
2018-12-14T00:41:54.175Z,3.218688
2018-12-14T00:42:06.523Z,3.218688
2018-12-14T00:42:18.885Z,3.218688
2018-12-14T00:42:31.242Z,3.218688
2018-12-14T00:42:43.689Z,3.218688
2018-12-14T00:42:56.049Z,3.218688
2018-12-14T00:43:08.401Z,0
2018-12-14T00:43:20.779Z,0
2018-12-14T00:43:33.118Z,3.218688
2018-12-14T00:43:45.473Z,3.218688
2018-12-14T00:43:57.805Z,3.218688
2018-12-14T00:44:10.157Z,1.609344
2018-12-14T00:44:22.491Z,3.218688
2018-12-14T00:44:34.840Z,3.218688
2018-12-14T00:44:47.166Z,3.218688
2018-12-14T00:44:59.512Z,3.218688
2018-12-14T00:45:11.859Z,3.218688
2018-12-14T00:45:24.204Z,3.218688
2018-12-14T00:45:36.534Z,3.218688
2018-12-14T00:45:48.885Z,3.218688
2018-12-14T00:46:01.340Z,3.218688
2018-12-14T00:46:13.783Z,1.609344
2018-12-14T00:46:26.132Z,1.609344
2018-12-14T00:46:38.470Z,1.609344
2018-12-14T00:46:50.818Z,1.609344
2018-12-14T00:47:03.156Z,1.609344
2018-12-14T00:47:16.476Z,1.609344
2018-12-14T00:47:28.832Z,1.609344
2018-12-14T00:47:41.268Z,3.218688
2018-12-14T00:47:53.616Z,6.437376
2018-12-14T00:48:05.953Z,1.609344
2018-12-14T00:48:18.321Z,1.609344
2018-12-14T00:48:30.670Z,3.218688
2018-12-14T00:48:43.011Z,3.218688
2018-12-14T00:48:55.369Z,4.828032
2018-12-14T00:49:07.861Z,8.04672
2018-12-14T00:49:20.221Z,8.04672
2018-12-14T00:49:32.557Z,8.04672
2018-12-14T00:49:44.905Z,8.04672
2018-12-14T00:49:57.242Z,8.04672
2018-12-14T00:50:09.673Z,4.828032
2018-12-14T00:50:22.009Z,4.828032
2018-12-14T00:50:34.341Z,4.828032
2018-12-14T00:50:46.676Z,4.828032
2018-12-14T00:50:59.017Z,4.828032
2018-12-14T00:51:11.358Z,4.828032
2018-12-14T00:51:23.764Z,4.828032
2018-12-14T00:51:36.161Z,6.437376
2018-12-14T00:51:48.507Z,6.437376
2018-12-14T00:52:00.851Z,6.437376
2018-12-14T00:52:13.307Z,1.609344
2018-12-14T00:52:25.645Z,1.609344
2018-12-14T00:52:37.982Z,1.609344
2018-12-14T00:52:50.619Z,1.609344
2018-12-14T00:53:02.967Z,1.609344
2018-12-14T00:53:15.334Z,1.609344
2018-12-14T00:53:27.694Z,1.609344
2018-12-14T00:53:40.235Z,3.218688
2018-12-14T00:53:52.571Z,3.218688
2018-12-14T00:54:04.970Z,6.437376
2018-12-14T00:54:17.370Z,6.437376
2018-12-14T00:54:29.707Z,6.437376
2018-12-14T00:54:42.050Z,6.437376
2018-12-14T00:54:54.377Z,6.437376
2018-12-14T00:55:06.849Z,3.218688
2018-12-14T00:55:19.347Z,4.828032
2018-12-14T00:55:31.671Z,4.828032
2018-12-14T00:55:44.075Z,4.828032
2018-12-14T00:55:56.431Z,6.437376
2018-12-14T00:56:08.786Z,4.828032
2018-12-14T00:56:21.145Z,4.828032
2018-12-14T00:56:33.472Z,4.828032
2018-12-14T00:56:45.952Z,4.828032
2018-12-14T00:56:58.307Z,4.828032
2018-12-14T00:57:10.736Z,3.218688
2018-12-14T00:57:23.076Z,4.828032
2018-12-14T00:57:35.443Z,4.828032
2018-12-14T00:57:47.901Z,4.828032
2018-12-14T00:58:00.261Z,4.828032
2018-12-14T00:58:12.594Z,0
2018-12-14T00:58:24.941Z,0
2018-12-14T00:58:37.282Z,0
2018-12-14T00:58:49.626Z,1.609344
2018-12-14T00:59:02.036Z,1.609344
2018-12-14T00:59:14.378Z,0
2018-12-14T00:59:26.775Z,0
2018-12-14T00:59:39.132Z,1.609344
2018-12-14T00:59:51.476Z,1.609344
2018-12-14T01:00:03.813Z,1.609344
2018-12-14T01:00:16.321Z,4.828032
2018-12-14T01:00:28.740Z,9.656064
2018-12-14T01:00:41.102Z,9.656064
2018-12-14T01:00:53.459Z,9.656064
2018-12-14T01:01:05.812Z,6.437376
2018-12-14T01:01:18.162Z,6.437376
2018-12-14T01:01:30.496Z,6.437376
2018-12-14T01:01:42.844Z,6.437376
2018-12-14T01:01:55.191Z,6.437376
2018-12-14T01:02:07.855Z,3.218688
2018-12-14T01:02:20.182Z,3.218688
2018-12-14T01:02:32.526Z,3.218688
2018-12-14T01:02:44.870Z,3.218688
2018-12-14T01:02:57.242Z,3.218688
2018-12-14T01:03:09.933Z,0
2018-12-14T01:03:22.420Z,3.218688
2018-12-14T01:03:34.782Z,3.218688
2018-12-14T01:03:47.150Z,3.218688
2018-12-14T01:03:59.489Z,3.218688
2018-12-14T01:04:11.843Z,1.609344
2018-12-14T01:04:24.210Z,1.609344
2018-12-14T01:04:36.547Z,1.609344
2018-12-14T01:04:48.915Z,1.609344
2018-12-14T01:05:01.274Z,1.609344
2018-12-14T01:05:13.614Z,1.609344
2018-12-14T01:05:25.964Z,1.609344
2018-12-14T01:05:38.319Z,1.609344
2018-12-14T01:05:50.750Z,3.218688
2018-12-14T01:06:03.091Z,3.218688
2018-12-14T01:06:15.948Z,3.218688
2018-12-14T01:06:28.288Z,3.218688
2018-12-14T01:06:40.642Z,3.218688
2018-12-14T01:06:52.991Z,3.218688
2018-12-14T01:07:05.344Z,0
2018-12-14T01:07:17.679Z,0
2018-12-14T01:07:30.013Z,1.609344
2018-12-14T01:07:42.354Z,6.437376
2018-12-14T01:07:54.701Z,6.437376
2018-12-14T01:08:07.057Z,1.609344
2018-12-14T01:08:19.638Z,1.609344
2018-12-14T01:08:31.979Z,3.218688
2018-12-14T01:08:44.333Z,3.218688
2018-12-14T01:08:56.681Z,3.218688
2018-12-14T01:09:09.015Z,3.218688
2018-12-14T01:09:21.350Z,3.218688
2018-12-14T01:09:33.695Z,3.218688
2018-12-14T01:09:46.035Z,3.218688
2018-12-14T01:09:58.385Z,3.218688
2018-12-14T01:10:10.791Z,0
2018-12-14T01:10:23.135Z,0
2018-12-14T01:10:35.508Z,0
2018-12-14T01:10:47.852Z,0
2018-12-14T01:11:00.205Z,0
2018-12-14T01:11:12.547Z,0
2018-12-14T01:11:24.909Z,1.609344
2018-12-14T01:11:37.245Z,1.609344
2018-12-14T01:11:49.578Z,1.609344
2018-12-14T01:12:08.301Z,0
2018-12-14T01:12:20.636Z,0
2018-12-14T01:12:32.966Z,1.609344
2018-12-14T01:12:45.319Z,1.609344
2018-12-14T01:12:57.675Z,3.218688
2018-12-14T01:13:10.114Z,1.609344
2018-12-14T01:13:22.529Z,1.609344
2018-12-14T01:13:35.091Z,1.609344
2018-12-14T01:13:47.499Z,1.609344
2018-12-14T01:13:59.841Z,3.218688
2018-12-14T01:14:12.279Z,1.609344
2018-12-14T01:14:24.632Z,1.609344
2018-12-14T01:14:36.955Z,1.609344
2018-12-14T01:14:49.294Z,1.609344
2018-12-14T01:15:01.657Z,8.04672
2018-12-14T01:15:14.063Z,8.04672
2018-12-14T01:15:26.400Z,8.04672
2018-12-14T01:15:38.833Z,8.04672
2018-12-14T01:15:51.187Z,9.656064
2018-12-14T01:16:03.506Z,6.437376
2018-12-14T01:16:15.836Z,6.437376
2018-12-14T01:16:28.209Z,6.437376
2018-12-14T01:16:40.544Z,6.437376
2018-12-14T01:16:52.891Z,6.437376
2018-12-14T01:17:05.243Z,1.609344
2018-12-14T01:17:17.797Z,1.609344
2018-12-14T01:17:30.145Z,3.218688
2018-12-14T01:17:42.605Z,3.218688
2018-12-14T01:17:54.981Z,3.218688
2018-12-14T01:18:07.314Z,1.609344
2018-12-14T01:18:20.056Z,1.609344
2018-12-14T01:18:32.413Z,1.609344
2018-12-14T01:18:44.750Z,1.609344
2018-12-14T01:18:57.123Z,1.609344
2018-12-14T01:19:09.456Z,0
2018-12-14T01:19:21.810Z,0
2018-12-14T01:19:34.168Z,0
2018-12-14T01:19:46.522Z,1.609344
2018-12-14T01:19:58.885Z,1.609344
2018-12-14T01:20:11.233Z,1.609344
2018-12-14T01:20:23.576Z,3.218688
2018-12-14T01:20:35.977Z,3.218688
2018-12-14T01:20:48.332Z,3.218688
2018-12-14T01:21:00.669Z,3.218688
2018-12-14T01:21:13.058Z,1.609344
2018-12-14T01:21:25.388Z,1.609344
2018-12-14T01:21:37.725Z,1.609344
2018-12-14T01:21:50.088Z,1.609344
2018-12-14T01:22:02.443Z,1.609344
2018-12-14T01:22:14.779Z,0
2018-12-14T01:22:27.149Z,0
2018-12-14T01:22:39.493Z,0
2018-12-14T01:22:52.542Z,0
2018-12-14T01:23:04.892Z,0
2018-12-14T01:23:17.231Z,0
2018-12-14T01:23:29.561Z,1.609344
2018-12-14T01:23:41.900Z,1.609344
2018-12-14T01:23:54.272Z,1.609344
2018-12-14T01:24:06.660Z,4.828032
2018-12-14T01:24:19.003Z,6.437376
2018-12-14T01:24:31.353Z,6.437376
2018-12-14T01:24:43.707Z,6.437376
2018-12-14T01:24:56.075Z,6.437376
2018-12-14T01:25:08.404Z,4.828032
2018-12-14T01:25:20.742Z,4.828032
2018-12-14T01:25:33.085Z,6.437376
2018-12-14T01:25:45.423Z,6.437376
2018-12-14T01:25:57.778Z,6.437376
2018-12-14T01:26:10.266Z,3.218688
2018-12-14T01:26:22.610Z,6.437376
2018-12-14T01:26:35.116Z,6.437376
2018-12-14T01:26:47.454Z,6.437376
2018-12-14T01:26:59.800Z,6.437376
2018-12-14T01:27:12.216Z,3.218688
2018-12-14T01:27:24.555Z,3.218688
2018-12-14T01:27:36.910Z,3.218688
2018-12-14T01:27:49.259Z,3.218688
2018-12-14T01:28:01.600Z,3.218688
2018-12-14T01:28:14.097Z,1.609344
2018-12-14T01:28:26.513Z,3.218688
2018-12-14T01:28:38.847Z,3.218688
2018-12-14T01:28:51.200Z,3.218688
2018-12-14T01:29:03.551Z,6.437376
2018-12-14T01:29:15.935Z,6.437376
2018-12-14T01:29:28.281Z,6.437376
2018-12-14T01:29:40.745Z,6.437376
2018-12-14T01:29:53.110Z,6.437376
2018-12-14T01:30:05.464Z,8.04672
2018-12-14T01:30:17.807Z,9.656064
2018-12-14T01:30:30.209Z,9.656064
2018-12-14T01:30:42.683Z,9.656064
2018-12-14T01:30:55.041Z,9.656064
2018-12-14T01:31:07.396Z,3.218688
2018-12-14T01:31:19.740Z,3.218688
2018-12-14T01:31:32.083Z,8.04672
2018-12-14T01:31:44.421Z,8.04672
2018-12-14T01:31:56.929Z,8.04672
2018-12-14T01:32:09.277Z,3.218688
2018-12-14T01:32:21.629Z,3.218688
2018-12-14T01:32:33.988Z,6.437376
2018-12-14T01:32:46.330Z,6.437376
2018-12-14T01:32:58.951Z,6.437376
2018-12-14T01:33:11.309Z,3.218688
2018-12-14T01:33:23.648Z,3.218688
2018-12-14T01:33:35.981Z,3.218688
2018-12-14T01:33:48.355Z,3.218688
2018-12-14T01:34:00.707Z,3.218688
2018-12-14T01:34:13.054Z,3.218688
2018-12-14T01:34:25.415Z,3.218688
2018-12-14T01:34:38.039Z,3.218688
2018-12-14T01:34:50.376Z,3.218688
2018-12-14T01:35:02.744Z,3.218688
2018-12-14T01:35:15.092Z,3.218688
2018-12-14T01:35:27.574Z,3.218688
2018-12-14T01:35:39.924Z,3.218688
2018-12-14T01:35:52.267Z,3.218688
2018-12-14T01:36:04.620Z,1.609344
2018-12-14T01:36:16.953Z,1.609344
2018-12-14T01:36:29.304Z,1.609344
2018-12-14T01:36:41.650Z,3.218688
2018-12-14T01:36:54.071Z,3.218688
2018-12-14T01:37:06.404Z,1.609344
2018-12-14T01:37:18.767Z,3.218688
2018-12-14T01:37:31.115Z,3.218688
2018-12-14T01:37:43.456Z,3.218688
2018-12-14T01:37:55.813Z,8.04672
2018-12-14T01:38:08.497Z,8.04672
2018-12-14T01:38:20.829Z,8.04672
2018-12-14T01:38:33.168Z,8.04672
2018-12-14T01:38:45.523Z,8.04672
2018-12-14T01:38:57.857Z,8.04672
2018-12-14T01:39:10.207Z,4.828032
2018-12-14T01:39:22.548Z,6.437376
2018-12-14T01:39:34.896Z,6.437376
2018-12-14T01:39:47.270Z,6.437376
2018-12-14T01:39:59.791Z,6.437376
2018-12-14T01:40:12.129Z,6.437376
2018-12-14T01:40:24.483Z,6.437376
2018-12-14T01:40:36.917Z,6.437376
2018-12-14T01:40:49.280Z,6.437376
2018-12-14T01:41:01.747Z,6.437376
2018-12-14T01:41:14.246Z,3.218688
2018-12-14T01:41:26.609Z,3.218688
2018-12-14T01:41:38.950Z,3.218688
2018-12-14T01:41:51.275Z,3.218688
2018-12-14T01:42:10.424Z,3.218688
2018-12-14T01:42:22.780Z,3.218688
2018-12-14T01:42:35.124Z,3.218688
2018-12-14T01:42:47.488Z,3.218688
2018-12-14T01:42:59.817Z,3.218688
2018-12-14T01:43:12.178Z,0
2018-12-14T01:43:24.514Z,0
2018-12-14T01:43:36.873Z,0
2018-12-14T01:43:49.229Z,0
2018-12-14T01:44:01.560Z,0
2018-12-14T01:44:13.907Z,0
2018-12-14T01:44:26.474Z,0
2018-12-14T01:44:38.807Z,0
2018-12-14T01:44:51.157Z,0
2018-12-14T01:45:03.491Z,0
2018-12-14T01:45:15.877Z,1.609344
2018-12-14T01:45:28.222Z,6.437376
2018-12-14T01:45:40.623Z,6.437376
2018-12-14T01:45:53.039Z,6.437376
2018-12-14T01:46:05.426Z,1.609344
2018-12-14T01:46:17.799Z,1.609344
2018-12-14T01:46:30.138Z,1.609344
2018-12-14T01:46:42.476Z,1.609344
2018-12-14T01:46:54.827Z,1.609344
2018-12-14T01:47:07.223Z,0
2018-12-14T01:47:19.579Z,0
2018-12-14T01:47:31.909Z,0
2018-12-14T01:47:44.306Z,0
2018-12-14T01:47:56.644Z,0
2018-12-14T01:48:09.012Z,0
2018-12-14T01:48:22.734Z,0
2018-12-14T01:48:35.077Z,0
2018-12-14T01:48:47.456Z,0
2018-12-14T01:48:59.788Z,0
2018-12-14T01:49:12.133Z,0
2018-12-14T01:49:24.505Z,0
2018-12-14T01:49:36.895Z,0
2018-12-14T01:49:49.252Z,3.218688
2018-12-14T01:50:01.774Z,3.218688
2018-12-14T01:50:14.108Z,3.218688
2018-12-14T01:50:26.442Z,3.218688
2018-12-14T01:50:38.808Z,3.218688
2018-12-14T01:50:51.138Z,3.218688
2018-12-14T01:51:03.497Z,1.609344
2018-12-14T01:51:15.825Z,1.609344
2018-12-14T01:51:28.197Z,1.609344
2018-12-14T01:51:40.565Z,1.609344
2018-12-14T01:51:52.929Z,1.609344
2018-12-14T01:52:05.367Z,0
2018-12-14T01:52:17.738Z,0
2018-12-14T01:52:30.082Z,0
2018-12-14T01:52:42.426Z,0
2018-12-14T01:52:54.865Z,1.609344
2018-12-14T01:53:07.220Z,1.609344
2018-12-14T01:53:19.568Z,3.218688
2018-12-14T01:53:31.905Z,3.218688
2018-12-14T01:53:44.387Z,3.218688
2018-12-14T01:53:56.802Z,3.218688
2018-12-14T01:54:09.310Z,3.218688
2018-12-14T01:54:21.681Z,3.218688
2018-12-14T01:54:34.032Z,3.218688
2018-12-14T01:54:46.383Z,3.218688
2018-12-14T01:54:58.855Z,3.218688
2018-12-14T01:55:11.208Z,3.218688
2018-12-14T01:55:23.668Z,3.218688
2018-12-14T01:55:36.018Z,3.218688
2018-12-14T01:55:48.359Z,3.218688
2018-12-14T01:56:00.708Z,3.218688
2018-12-14T01:56:13.190Z,1.609344
2018-12-14T01:56:25.567Z,1.609344
2018-12-14T01:56:37.917Z,1.609344
2018-12-14T01:56:50.317Z,1.609344
2018-12-14T01:57:02.722Z,1.609344
2018-12-14T01:57:15.077Z,1.609344
2018-12-14T01:57:27.428Z,1.609344
2018-12-14T01:57:39.791Z,1.609344
2018-12-14T01:57:52.131Z,1.609344
2018-12-14T01:58:04.472Z,0
2018-12-14T01:58:16.829Z,1.609344
2018-12-14T01:58:29.174Z,3.218688
2018-12-14T01:58:41.510Z,3.218688
2018-12-14T01:58:53.997Z,3.218688
2018-12-14T01:59:06.337Z,1.609344
2018-12-14T01:59:18.709Z,1.609344
2018-12-14T01:59:31.062Z,1.609344
2018-12-14T01:59:43.407Z,1.609344
2018-12-14T01:59:55.737Z,1.609344
2018-12-14T02:00:08.345Z,3.218688
2018-12-14T02:00:20.716Z,4.828032
2018-12-14T02:00:33.169Z,6.437376
2018-12-14T02:00:45.622Z,6.437376
2018-12-14T02:00:57.984Z,6.437376
2018-12-14T02:01:10.396Z,3.218688
2018-12-14T02:01:22.745Z,3.218688
2018-12-14T02:01:35.080Z,3.218688
2018-12-14T02:01:47.422Z,3.218688
2018-12-14T02:01:59.909Z,3.218688
2018-12-14T02:02:12.384Z,1.609344
2018-12-14T02:02:24.743Z,1.609344
2018-12-14T02:02:37.083Z,1.609344
2018-12-14T02:02:49.440Z,1.609344
2018-12-14T02:03:01.858Z,1.609344
2018-12-14T02:03:14.412Z,0
2018-12-14T02:03:26.753Z,1.609344
2018-12-14T02:03:39.104Z,1.609344
2018-12-14T02:03:51.461Z,1.609344
2018-12-14T02:04:03.815Z,0
2018-12-14T02:04:16.162Z,0
2018-12-14T02:04:28.582Z,0
2018-12-14T02:04:41.702Z,0
2018-12-14T02:04:54.057Z,0
2018-12-14T02:05:06.441Z,1.609344
2018-12-14T02:05:18.812Z,1.609344
2018-12-14T02:05:31.232Z,1.609344
2018-12-14T02:05:43.648Z,1.609344
2018-12-14T02:05:56.006Z,1.609344
2018-12-14T02:06:08.365Z,0
2018-12-14T02:06:20.721Z,0
2018-12-14T02:06:33.069Z,0
2018-12-14T02:06:45.458Z,1.609344
2018-12-14T02:06:57.908Z,1.609344
2018-12-14T02:07:10.246Z,0
2018-12-14T02:07:22.585Z,0
2018-12-14T02:07:34.922Z,0
2018-12-14T02:07:47.257Z,1.609344
2018-12-14T02:07:59.649Z,3.218688
2018-12-14T02:08:11.996Z,6.437376
2018-12-14T02:08:24.325Z,6.437376
2018-12-14T02:08:36.670Z,6.437376
2018-12-14T02:08:49.001Z,6.437376
2018-12-14T02:09:01.431Z,6.437376
2018-12-14T02:09:13.780Z,1.609344
2018-12-14T02:09:26.126Z,1.609344
2018-12-14T02:09:38.482Z,1.609344
2018-12-14T02:09:50.879Z,1.609344
2018-12-14T02:10:03.326Z,1.609344
2018-12-14T02:10:15.673Z,3.218688
2018-12-14T02:10:28.008Z,3.218688
2018-12-14T02:10:40.356Z,3.218688
2018-12-14T02:10:52.696Z,3.218688
2018-12-14T02:11:05.036Z,3.218688
2018-12-14T02:11:17.395Z,6.437376
2018-12-14T02:11:29.768Z,6.437376
2018-12-14T02:11:42.102Z,6.437376
2018-12-14T02:11:54.444Z,6.437376
2018-12-14T02:12:13.557Z,1.609344
2018-12-14T02:12:25.912Z,1.609344
2018-12-14T02:12:38.373Z,1.609344
2018-12-14T02:12:50.720Z,3.218688
2018-12-14T02:13:03.067Z,1.609344
2018-12-14T02:13:15.616Z,3.218688
2018-12-14T02:13:27.971Z,3.218688
2018-12-14T02:13:40.310Z,3.218688
2018-12-14T02:13:52.658Z,3.218688
2018-12-14T02:14:05.016Z,3.218688
2018-12-14T02:14:18.902Z,3.218688
2018-12-14T02:14:31.271Z,3.218688
2018-12-14T02:14:43.620Z,3.218688
2018-12-14T02:14:55.983Z,3.218688
2018-12-14T02:15:08.327Z,3.218688
2018-12-14T02:15:20.686Z,3.218688
2018-12-14T02:15:33.035Z,3.218688
2018-12-14T02:15:45.378Z,3.218688
2018-12-14T02:15:57.736Z,3.218688
2018-12-14T02:16:10.089Z,1.609344
2018-12-14T02:16:22.437Z,1.609344
2018-12-14T02:16:34.773Z,6.437376
2018-12-14T02:16:47.116Z,6.437376
2018-12-14T02:16:59.476Z,6.437376
2018-12-14T02:17:11.814Z,3.218688
2018-12-14T02:17:24.281Z,6.437376
2018-12-14T02:17:36.632Z,8.04672
2018-12-14T02:17:49.041Z,9.656064
2018-12-14T02:18:01.455Z,9.656064
2018-12-14T02:18:13.805Z,6.437376
2018-12-14T02:18:26.412Z,6.437376
2018-12-14T02:18:38.769Z,6.437376
2018-12-14T02:18:51.121Z,6.437376
2018-12-14T02:19:03.480Z,3.218688
2018-12-14T02:19:15.829Z,3.218688
2018-12-14T02:19:29.344Z,3.218688
2018-12-14T02:19:41.716Z,3.218688
2018-12-14T02:19:54.092Z,3.218688
2018-12-14T02:20:06.579Z,1.609344
2018-12-14T02:20:18.957Z,3.218688
2018-12-14T02:20:31.309Z,6.437376
2018-12-14T02:20:43.647Z,6.437376
2018-12-14T02:20:55.997Z,8.04672
2018-12-14T02:21:08.351Z,4.828032
2018-12-14T02:21:20.718Z,6.437376
2018-12-14T02:21:33.061Z,8.04672
2018-12-14T02:21:45.491Z,8.04672
2018-12-14T02:21:57.849Z,8.04672
2018-12-14T02:22:10.191Z,3.218688
2018-12-14T02:22:22.543Z,3.218688
2018-12-14T02:22:34.909Z,6.437376
2018-12-14T02:22:47.304Z,6.437376
2018-12-14T02:22:59.671Z,8.04672
2018-12-14T02:23:12.027Z,3.218688
2018-12-14T02:23:24.398Z,3.218688
2018-12-14T02:23:36.751Z,8.04672
2018-12-14T02:23:49.265Z,8.04672
2018-12-14T02:24:01.627Z,8.04672
2018-12-14T02:24:13.990Z,12.874752
2018-12-14T02:24:26.356Z,12.874752
2018-12-14T02:24:38.701Z,12.874752
2018-12-14T02:24:51.203Z,12.874752
2018-12-14T02:25:03.568Z,9.656064
2018-12-14T02:25:15.930Z,9.656064
2018-12-14T02:25:28.282Z,9.656064
2018-12-14T02:25:40.627Z,9.656064
2018-12-14T02:25:52.957Z,11.265408
2018-12-14T02:26:05.292Z,8.04672
2018-12-14T02:26:17.631Z,8.04672
2018-12-14T02:26:30.156Z,8.04672
2018-12-14T02:26:42.486Z,8.04672
2018-12-14T02:26:54.818Z,8.04672
2018-12-14T02:27:07.175Z,3.218688
2018-12-14T02:27:19.500Z,3.218688
2018-12-14T02:27:31.921Z,3.218688
2018-12-14T02:27:44.394Z,3.218688
2018-12-14T02:27:56.731Z,3.218688
2018-12-14T02:28:09.101Z,3.218688
2018-12-14T02:28:21.610Z,6.437376
2018-12-14T02:28:33.961Z,6.437376
2018-12-14T02:28:46.355Z,6.437376
2018-12-14T02:28:58.705Z,6.437376
2018-12-14T02:29:11.041Z,8.04672
2018-12-14T02:29:23.378Z,8.04672
2018-12-14T02:29:35.943Z,8.04672
2018-12-14T02:29:48.328Z,8.04672
2018-12-14T02:30:00.719Z,8.04672
2018-12-14T02:30:13.118Z,8.04672